Flight Track Log - Related Links

Times and Time Zones

All times are in EDT time to prevent confusion due to time zone crossing. See the EGC641 flight status page for this flight to view local times or setup timezone preferences in your user account.

Time Position Orientation Groundspeed Altitude Reporting Facility
EDT Latitude Longitude Course Direction KTS MPH feet Rate Location/Type
03:55PM 28.1000 -80.6333 74° East 123 142 600  Level Orlando TRACON
03:56PM 28.1078 -80.6017 83° East 161 185 2,100 2,495 Climbing Miami Center
03:57PM 28.0814 -80.5725 136° Southeast 155 178 4,800 2,050 Climbing Miami Center
03:58PM 28.0225 -80.5942 198° South 153 176 6,200 2,000 Climbing Miami Center
03:59PM 27.9592 -80.6181 198° South 215 247 8,800 1,750 Climbing Miami Center
04:00PM 27.8975 -80.6606 211° Southwest 246 283 9,700 1,400 Climbing Miami Center
04:01PM 27.8317 -80.7078 212° Southwest 271 312 11,600 1,150 Climbing Miami Center
04:02PM 27.7761 -80.7597 220° Southwest 291 335 12,000 200 Climbing Miami Center
04:03PM 27.7117 -80.8186 219° Southwest 303 349 12,000  Level Miami Center
04:04PM 27.6494 -80.8819 222° Southwest 303 349 12,000  Level Miami Center
04:05PM 27.5767 -80.9497 220° Southwest 309 356 12,000 -50 Level Miami Center
04:06PM 27.5167 -81.0039 219° Southwest 316 364 11,900 -50 Descending Miami Center
04:07PM 27.4522 -81.0669 221° Southwest 311 358 11,900 50 Level Miami Center
04:08PM 27.3878 -81.1253 219° Southwest 311 358 12,000 50 Climbing Miami Center
04:09PM 27.3211 -81.1883 220° Southwest 311 358 12,000  Level Miami Center
04:10PM 27.2503 -81.2558 220° Southwest 316 364 12,000  Level Miami Center
04:11PM 27.1858 -81.3186 221° Southwest 316 364 12,000 -50 Level Miami Center
04:12PM 27.1169 -81.3814 219° Southwest 316 364 11,900 -500 Descending Miami Center
04:13PM 27.0525 -81.4417 220° Southwest 316 364 11,000 -950 Descending Miami Center
04:14PM 26.9725 -81.4619 193° South 287 330 10,000 -500 Descending Miami Center
04:15PM 26.8964 -81.4914 199° South 287 330 10,000 -250 Level Miami Center
04:16PM 26.8225 -81.5164 197° South 298 343 9,500 -950 Descending Miami Center
04:17PM 26.7547 -81.5464 202° Southwest 291 335 8,100 -1,450 Descending Miami Center
04:18PM 26.6767 -81.5733 197° South 291 335 6,600 -1,550 Descending Miami Center
04:19PM 26.6025 -81.6053 201° Southwest 277 319 5,000 -1,600 Descending Miami Center
04:21PM 26.4846 -81.6475 198° South  Level FlightAware Approximate
04:28PM 26.1500 -81.7667 198° South  Level FlightAware Approximate
04:29PM 26.1524 -81.7756 198° South  Level Estimated
04:30PM 26.1524 -81.7756 198° South  Level Estimated
04:31PM 26.1524 -81.7756 198° South  Level Estimated
04:32PM 26.1524 -81.7756 198° South  Level Estimated
04:33PM 26.1524 -81.7756 198° South  Level Estimated
04:34PM 26.1524 -81.7756 198° South  Level Estimated
04:35PM 26.1524 -81.7756 198° South  Level Estimated
04:36PM 26.1524 -81.7756 198° South  Level Estimated

Login

Don't have an account? Register now (free) for customized features, flight alerts, and more!